createdAt,value
2019-01-10T00:00:39.294Z,2.63
2019-01-10T00:03:08.733Z,3.00
2019-01-10T00:05:38.162Z,4.37
2019-01-10T00:08:07.600Z,2.80
2019-01-10T00:10:37.110Z,3.40
2019-01-10T00:13:06.714Z,2.73
2019-01-10T00:15:36.236Z,3.40
2019-01-10T00:18:06.505Z,2.23
2019-01-10T00:20:35.929Z,2.43
2019-01-10T00:23:05.369Z,3.10
2019-01-10T00:25:34.860Z,4.73
2019-01-10T00:28:04.580Z,3.53
2019-01-10T00:30:34.003Z,2.23
2019-01-10T00:33:03.508Z,3.20
2019-01-10T00:35:32.914Z,2.73
2019-01-10T00:38:02.350Z,3.43
2019-01-10T00:40:31.797Z,3.67
2019-01-10T00:43:01.240Z,3.33
2019-01-10T00:45:30.684Z,2.93
2019-01-10T00:48:00.119Z,3.17
2019-01-10T00:50:29.542Z,3.53
2019-01-10T00:52:58.974Z,3.47
2019-01-10T00:55:28.390Z,3.83
2019-01-10T00:57:58.058Z,2.00
2019-01-10T01:00:27.702Z,2.10
2019-01-10T01:02:57.160Z,2.37
2019-01-10T01:05:26.570Z,5.23
2019-01-10T01:07:56.014Z,3.03
2019-01-10T01:10:26.806Z,2.83
2019-01-10T01:12:58.766Z,3.03
2019-01-10T01:15:27.736Z,1.87
2019-01-10T01:17:57.145Z,3.27
2019-01-10T01:20:26.562Z,2.93
2019-01-10T01:22:56.005Z,3.80
2019-01-10T01:25:25.458Z,3.80
2019-01-10T01:27:55.032Z,3.30
2019-01-10T01:30:25.293Z,2.47
2019-01-10T01:32:55.729Z,3.17
2019-01-10T01:35:25.165Z,2.37
2019-01-10T01:37:54.597Z,2.20
2019-01-10T01:40:24.085Z,3.80
2019-01-10T01:42:53.558Z,4.10
2019-01-10T01:45:22.993Z,4.67
2019-01-10T01:47:52.438Z,2.93
2019-01-10T01:50:23.322Z,2.20
2019-01-10T01:52:53.641Z,3.73
2019-01-10T01:55:42.538Z,4.83
2019-01-10T01:58:11.962Z,3.47
2019-01-10T02:00:41.438Z,1.80
2019-01-10T02:03:11.226Z,2.47
2019-01-10T02:05:40.648Z,3.10
2019-01-10T02:08:10.070Z,2.83
2019-01-10T02:10:39.518Z,2.63
2019-01-10T02:13:16.571Z,2.90
2019-01-10T02:15:40.146Z,3.77
2019-01-10T02:18:09.573Z,1.80
2019-01-10T02:20:39.010Z,1.50
2019-01-10T02:23:08.446Z,5.50
2019-01-10T02:25:37.881Z,2.40
2019-01-10T02:28:07.310Z,3.33
2019-01-10T02:30:41.892Z,2.93
2019-01-10T02:33:07.868Z,1.80
2019-01-10T02:35:37.302Z,3.10
2019-01-10T02:38:06.979Z,1.90
2019-01-10T02:40:36.613Z,3.23
2019-01-10T02:43:06.131Z,2.43
2019-01-10T02:45:35.596Z,1.50
2019-01-10T02:48:05.042Z,1.20
2019-01-10T02:50:35.543Z,1.90
2019-01-10T02:53:04.974Z,2.43
2019-01-10T02:55:34.398Z,2.33
2019-01-10T02:58:03.863Z,2.00
2019-01-10T03:00:33.346Z,1.27
2019-01-10T03:03:04.072Z,1.67
2019-01-10T03:05:34.538Z,1.90
2019-01-10T03:08:03.967Z,1.20
2019-01-10T03:10:33.593Z,1.90
2019-01-10T03:13:03.070Z,1.63
2019-01-10T03:15:32.662Z,2.13
2019-01-10T03:18:02.102Z,1.60
2019-01-10T03:20:31.553Z,1.37
2019-01-10T03:23:00.994Z,2.03
2019-01-10T03:25:30.420Z,2.13
2019-01-10T03:28:19.167Z,1.70
2019-01-10T03:30:48.607Z,2.13
2019-01-10T03:33:18.141Z,1.30
2019-01-10T03:35:47.594Z,2.20
2019-01-10T03:38:17.074Z,1.80
2019-01-10T03:40:48.233Z,1.07
2019-01-10T03:43:17.747Z,1.03
2019-01-10T03:45:47.170Z,2.50
2019-01-10T03:48:16.644Z,1.33
2019-01-10T03:50:46.094Z,1.83
2019-01-10T03:53:15.515Z,2.03
2019-01-10T03:55:44.933Z,1.57
2019-01-10T03:58:14.382Z,1.83
2019-01-10T04:00:43.814Z,1.13
2019-01-10T04:03:13.300Z,2.70
2019-01-10T04:05:42.784Z,2.00
2019-01-10T04:08:12.221Z,3.17
2019-01-10T04:10:42.557Z,1.77
2019-01-10T04:13:12.007Z,2.07
2019-01-10T04:15:41.462Z,1.97
2019-01-10T04:18:10.903Z,1.20
2019-01-10T04:20:40.346Z,2.37
2019-01-10T04:23:09.774Z,1.57
2019-01-10T04:25:39.212Z,2.93
2019-01-10T04:28:08.638Z,2.90
2019-01-10T04:30:38.073Z,1.50
2019-01-10T04:33:07.545Z,2.00
2019-01-10T04:35:36.979Z,1.93
2019-01-10T04:38:06.433Z,2.33
2019-01-10T04:40:37.002Z,1.17
2019-01-10T04:43:06.593Z,2.70
2019-01-10T04:45:36.101Z,2.27
2019-01-10T04:48:05.522Z,2.47
2019-01-10T04:50:34.946Z,2.47
2019-01-10T04:53:04.372Z,1.30
2019-01-10T04:55:33.800Z,2.27
2019-01-10T04:58:03.232Z,1.80
2019-01-10T05:00:32.679Z,1.90
2019-01-10T05:03:02.294Z,1.70
2019-01-10T05:05:32.030Z,3.30
2019-01-10T05:08:01.468Z,2.17
2019-01-10T05:10:31.518Z,2.40
2019-01-10T05:13:00.991Z,2.40
2019-01-10T05:15:30.406Z,1.97
2019-01-10T05:17:59.858Z,1.90
2019-01-10T05:20:29.279Z,2.00
2019-01-10T05:22:58.696Z,3.43
2019-01-10T05:25:28.110Z,2.40
2019-01-10T05:27:57.551Z,2.00
2019-01-10T05:30:26.983Z,1.80
2019-01-10T05:32:56.446Z,3.93
2019-01-10T05:35:25.903Z,2.93
2019-01-10T05:37:55.320Z,1.70
2019-01-10T05:40:24.757Z,2.33
2019-01-10T05:42:54.439Z,2.63
2019-01-10T05:45:24.086Z,1.90
2019-01-10T05:47:53.568Z,2.30
2019-01-10T05:50:23.215Z,2.83
2019-01-10T05:52:52.763Z,2.60
2019-01-10T05:55:23.425Z,3.30
2019-01-10T05:57:52.862Z,2.60
2019-01-10T06:00:24.598Z,2.53
2019-01-10T06:02:54.114Z,2.47
2019-01-10T06:05:24.598Z,2.53
2019-01-10T06:07:54.027Z,2.37
2019-01-10T06:10:28.331Z,2.53
2019-01-10T06:12:58.095Z,2.60
2019-01-10T06:15:27.687Z,2.57
2019-01-10T06:17:57.214Z,2.53
2019-01-10T06:20:26.646Z,3.10
2019-01-10T06:22:56.078Z,1.77
2019-01-10T06:25:25.490Z,2.90
2019-01-10T06:27:54.974Z,1.83
2019-01-10T06:30:24.849Z,2.40
2019-01-10T06:32:54.499Z,2.67
2019-01-10T06:35:23.930Z,3.73
2019-01-10T06:37:53.390Z,2.90
2019-01-10T06:40:22.941Z,2.03
2019-01-10T06:42:52.758Z,2.67
2019-01-10T06:45:22.383Z,3.27
2019-01-10T06:47:52.106Z,2.23
2019-01-10T06:50:21.747Z,2.43
2019-01-10T06:52:51.196Z,3.40
2019-01-10T06:55:20.621Z,1.80
2019-01-10T06:57:50.126Z,3.53
2019-01-10T07:00:21.465Z,2.33
2019-01-10T07:02:50.933Z,2.17
2019-01-10T07:05:21.241Z,2.70
2019-01-10T07:07:56.048Z,2.77
2019-01-10T07:10:29.486Z,2.60
2019-01-10T07:12:59.147Z,3.33
2019-01-10T07:15:28.567Z,3.90
2019-01-10T07:17:57.985Z,2.57
2019-01-10T07:20:27.410Z,2.67
2019-01-10T07:22:56.863Z,3.03
2019-01-10T07:25:26.503Z,2.27
2019-01-10T07:27:56.668Z,3.00
2019-01-10T07:30:35.731Z,2.90
2019-01-10T07:32:58.994Z,2.43
2019-01-10T07:35:28.438Z,3.13
2019-01-10T07:37:57.923Z,2.00
2019-01-10T07:40:27.773Z,3.47
2019-01-10T07:42:57.463Z,2.67
2019-01-10T07:45:28.151Z,2.53
2019-01-10T07:47:57.619Z,3.47
2019-01-10T07:50:37.174Z,3.33
2019-01-10T07:53:08.029Z,3.43
2019-01-10T07:55:38.121Z,3.70
2019-01-10T07:58:07.734Z,3.13
2019-01-10T08:00:37.216Z,3.57
2019-01-10T08:03:08.669Z,2.90
2019-01-10T08:05:37.980Z,2.83
2019-01-10T08:08:08.630Z,2.63
2019-01-10T08:10:38.636Z,3.43
2019-01-10T08:13:08.147Z,2.27
2019-01-10T08:15:37.642Z,4.43
2019-01-10T08:18:07.146Z,2.77
2019-01-10T08:20:36.578Z,2.93
2019-01-10T08:23:06.009Z,4.57
2019-01-10T08:25:35.486Z,3.63
2019-01-10T08:28:04.922Z,3.33
2019-01-10T08:30:34.357Z,3.17
2019-01-10T08:33:04.502Z,3.37
2019-01-10T08:35:35.023Z,3.87
2019-01-10T08:38:04.446Z,3.37
2019-01-10T08:40:33.919Z,5.27
2019-01-10T08:43:03.380Z,2.47
2019-01-10T08:45:33.194Z,3.80
2019-01-10T08:48:03.262Z,3.60
2019-01-10T08:50:32.922Z,2.77
2019-01-10T08:53:02.356Z,4.30
2019-01-10T08:55:31.900Z,3.20
2019-01-10T08:58:01.426Z,3.97
2019-01-10T09:00:31.930Z,4.17
2019-01-10T09:03:01.383Z,4.17
2019-01-10T09:05:30.818Z,3.93
2019-01-10T09:08:00.254Z,4.17
2019-01-10T09:10:32.798Z,4.20
2019-01-10T09:13:02.509Z,4.73
2019-01-10T09:15:34.681Z,4.13
2019-01-10T09:18:03.166Z,2.80
2019-01-10T09:20:32.598Z,3.33
2019-01-10T09:23:02.034Z,5.57
2019-01-10T09:25:31.474Z,5.63
2019-01-10T09:28:00.894Z,3.33
2019-01-10T09:30:30.352Z,4.23
2019-01-10T09:32:59.800Z,4.93
2019-01-10T09:35:29.524Z,4.47
2019-01-10T09:37:58.955Z,4.97
2019-01-10T09:40:28.421Z,5.33
2019-01-10T09:42:57.867Z,4.50
2019-01-10T09:45:27.310Z,5.33
2019-01-10T09:47:57.060Z,3.87
2019-01-10T09:50:26.527Z,4.10
2019-01-10T09:52:55.954Z,4.63
2019-01-10T09:55:25.388Z,5.63
2019-01-10T09:57:54.822Z,3.97
2019-01-10T10:00:29.265Z,4.10
2019-01-10T10:02:58.720Z,4.97
2019-01-10T10:05:28.198Z,6.37
2019-01-10T10:07:57.702Z,3.93
2019-01-10T10:10:27.180Z,4.10
2019-01-10T10:12:56.833Z,3.60
2019-01-10T10:15:26.291Z,3.37
2019-01-10T10:17:55.706Z,5.07
2019-01-10T10:20:25.526Z,3.77
2019-01-10T10:22:55.105Z,4.60
2019-01-10T10:25:25.980Z,5.07
2019-01-10T10:27:55.782Z,4.97
2019-01-10T10:30:25.205Z,4.17
2019-01-10T10:32:54.643Z,5.40
2019-01-10T10:35:24.083Z,4.60
2019-01-10T10:37:53.551Z,4.40
2019-01-10T10:40:22.986Z,4.13
2019-01-10T10:42:52.919Z,5.27
2019-01-10T10:45:22.538Z,5.60
2019-01-10T10:47:51.971Z,3.63
2019-01-10T10:50:26.873Z,6.13
2019-01-10T10:52:56.361Z,5.43
2019-01-10T10:55:25.794Z,6.07
2019-01-10T10:57:55.396Z,5.87
2019-01-10T11:00:27.834Z,5.83
2019-01-10T11:02:57.755Z,5.07
2019-01-10T11:05:27.218Z,5.97
2019-01-10T11:07:56.635Z,5.00
2019-01-10T11:10:26.421Z,6.23
2019-01-10T11:12:55.954Z,3.63
2019-01-10T11:15:25.414Z,4.37
2019-01-10T11:17:55.258Z,4.20
2019-01-10T11:20:25.071Z,3.90
2019-01-10T11:22:54.985Z,4.17
2019-01-10T11:25:28.707Z,3.77
2019-01-10T11:27:58.623Z,2.27
2019-01-10T11:30:28.070Z,1.53
2019-01-10T11:32:57.506Z,1.10
2019-01-10T11:35:26.948Z,0.80
2019-01-10T11:37:56.339Z,1.83
2019-01-10T11:40:25.752Z,0.90
2019-01-10T11:42:55.214Z,0.80
2019-01-10T11:45:26.274Z,0.60
2019-01-10T11:47:56.935Z,0.63
2019-01-10T11:50:26.758Z,0.80
2019-01-10T11:52:56.198Z,0.77
2019-01-10T11:55:25.648Z,1.00
2019-01-10T11:57:56.158Z,1.17
2019-01-10T12:00:29.173Z,0.70
2019-01-10T12:02:59.621Z,1.27
2019-01-10T12:05:29.142Z,0.50
2019-01-10T12:07:58.590Z,1.03
2019-01-10T12:10:29.475Z,1.27
2019-01-10T12:12:58.980Z,1.10
2019-01-10T12:15:28.394Z,1.07
2019-01-10T12:17:57.866Z,1.37
2019-01-10T12:20:27.299Z,1.47
2019-01-10T12:22:56.741Z,0.90
2019-01-10T12:25:26.218Z,1.20
2019-01-10T12:27:55.687Z,3.17
2019-01-10T12:30:26.070Z,0.53
2019-01-10T12:32:55.489Z,1.30
2019-01-10T12:35:25.493Z,2.80
2019-01-10T12:37:54.918Z,1.70
2019-01-10T12:40:24.342Z,0.70
2019-01-10T12:42:53.753Z,0.70
2019-01-10T12:45:23.503Z,1.10
2019-01-10T12:47:53.010Z,1.03
2019-01-10T12:50:30.653Z,1.13
2019-01-10T12:53:03.466Z,0.70
2019-01-10T12:55:32.942Z,1.00
2019-01-10T12:58:02.448Z,1.50
2019-01-10T13:00:31.888Z,1.00
2019-01-10T13:03:01.336Z,1.47
2019-01-10T13:05:30.737Z,1.50
2019-01-10T13:08:03.890Z,1.23
2019-01-10T13:10:31.728Z,0.87
2019-01-10T13:13:01.314Z,0.50
2019-01-10T13:15:30.718Z,0.80
2019-01-10T13:18:00.134Z,0.90
2019-01-10T13:20:29.569Z,0.60
2019-01-10T13:22:59.035Z,0.83
2019-01-10T13:25:28.455Z,1.00
2019-01-10T13:27:57.874Z,1.00
2019-01-10T13:30:27.556Z,1.20
2019-01-10T13:32:57.665Z,0.80
2019-01-10T13:35:27.624Z,1.53
2019-01-10T13:37:57.197Z,0.77
2019-01-10T13:40:27.766Z,1.00
2019-01-10T13:42:57.229Z,0.90
2019-01-10T13:45:26.667Z,1.33
2019-01-10T13:47:56.739Z,0.67
2019-01-10T13:50:31.166Z,1.33
2019-01-10T13:53:01.217Z,0.87
2019-01-10T13:55:30.695Z,1.10
2019-01-10T13:58:00.121Z,0.87
2019-01-10T14:00:35.462Z,0.87
2019-01-10T14:03:02.279Z,1.33
2019-01-10T14:05:31.764Z,1.30
2019-01-10T14:08:01.190Z,1.13
2019-01-10T14:10:30.870Z,0.90
2019-01-10T14:13:12.696Z,1.10
2019-01-10T14:15:43.164Z,1.00
2019-01-10T14:18:13.517Z,0.77
2019-01-10T14:20:43.159Z,0.90
2019-01-10T14:23:12.634Z,0.70
2019-01-10T14:25:42.054Z,1.00
2019-01-10T14:28:11.474Z,0.90
2019-01-10T14:30:41.439Z,0.97
2019-01-10T14:33:12.340Z,1.33
2019-01-10T14:35:41.815Z,0.93
2019-01-10T14:38:11.661Z,1.80
2019-01-10T14:40:41.101Z,0.80
2019-01-10T14:43:10.517Z,1.40
2019-01-10T14:45:41.203Z,1.17
2019-01-10T14:48:10.631Z,1.60
2019-01-10T14:50:41.013Z,1.67
2019-01-10T14:53:10.688Z,1.07
2019-01-10T14:55:41.301Z,1.77
2019-01-10T14:58:10.756Z,1.67
2019-01-10T15:00:40.171Z,2.03
2019-01-10T15:03:09.612Z,2.07
2019-01-10T15:05:39.038Z,1.00
2019-01-10T15:08:08.446Z,1.60
2019-01-10T15:10:38.160Z,1.13
2019-01-10T15:13:07.622Z,1.03
2019-01-10T15:15:37.076Z,1.07
2019-01-10T15:18:06.500Z,1.80
2019-01-10T15:20:35.961Z,1.43
2019-01-10T15:23:05.429Z,1.63
2019-01-10T15:25:34.886Z,1.63
2019-01-10T15:28:04.315Z,1.87
2019-01-10T15:30:33.738Z,2.20
2019-01-10T15:33:03.169Z,2.00
2019-01-10T15:35:32.603Z,2.80
2019-01-10T15:38:02.106Z,3.50
2019-01-10T15:40:32.854Z,3.93
2019-01-10T15:43:03.689Z,2.93
2019-01-10T15:45:33.134Z,3.17
2019-01-10T15:48:03.730Z,4.53
2019-01-10T15:50:33.497Z,3.27
2019-01-10T15:53:02.978Z,3.93
2019-01-10T15:55:32.659Z,3.00
2019-01-10T15:58:02.119Z,4.47
2019-01-10T16:00:31.578Z,3.20
2019-01-10T16:03:01.006Z,4.43
2019-01-10T16:05:30.451Z,3.23
2019-01-10T16:07:59.914Z,3.83
2019-01-10T16:10:29.823Z,4.30
2019-01-10T16:12:59.325Z,3.47
2019-01-10T16:15:28.742Z,4.03
2019-01-10T16:17:58.237Z,2.70
2019-01-10T16:20:27.666Z,2.60
2019-01-10T16:22:57.082Z,3.30
2019-01-10T16:25:26.485Z,3.17
2019-01-10T16:27:55.933Z,2.00
2019-01-10T16:30:27.517Z,2.93
2019-01-10T16:32:56.982Z,2.00
2019-01-10T16:35:26.431Z,1.80
2019-01-10T16:37:55.875Z,2.20
2019-01-10T16:40:25.366Z,2.77
2019-01-10T16:42:55.872Z,2.13
2019-01-10T16:45:27.686Z,4.40
2019-01-10T16:47:58.154Z,2.60
2019-01-10T16:50:27.592Z,2.20
2019-01-10T16:52:57.088Z,3.10
2019-01-10T16:55:26.513Z,3.80
2019-01-10T16:57:56.940Z,2.67
2019-01-10T17:00:31.259Z,3.73
2019-01-10T17:03:00.892Z,2.77
2019-01-10T17:05:30.313Z,2.53
2019-01-10T17:07:59.758Z,2.57
2019-01-10T17:10:29.329Z,2.43
2019-01-10T17:12:58.823Z,3.33
2019-01-10T17:15:28.309Z,2.03
2019-01-10T17:17:57.751Z,3.63
2019-01-10T17:20:28.392Z,1.90
2019-01-10T17:22:57.845Z,3.43
2019-01-10T17:25:27.287Z,2.07
2019-01-10T17:27:56.717Z,2.93
2019-01-10T17:30:28.061Z,2.67
2019-01-10T17:32:57.526Z,3.47
2019-01-10T17:35:29.292Z,2.67
2019-01-10T17:37:58.962Z,3.47
2019-01-10T17:40:28.630Z,2.63
2019-01-10T17:42:58.435Z,2.23
2019-01-10T17:45:30.322Z,2.90
2019-01-10T17:47:59.862Z,2.40
2019-01-10T17:50:29.309Z,3.20
2019-01-10T17:52:58.831Z,1.93
2019-01-10T17:55:28.301Z,2.20
2019-01-10T17:57:57.741Z,2.03
2019-01-10T18:00:28.826Z,2.03
2019-01-10T18:02:59.887Z,2.53
2019-01-10T18:05:29.334Z,2.40
2019-01-10T18:07:58.878Z,2.57
2019-01-10T18:10:28.746Z,2.47
2019-01-10T18:12:58.288Z,2.13
2019-01-10T18:15:27.737Z,2.57
2019-01-10T18:17:57.290Z,3.37
2019-01-10T18:20:30.639Z,2.50
2019-01-10T18:23:00.082Z,2.23
2019-01-10T18:25:29.503Z,3.00
2019-01-10T18:27:58.953Z,2.60
2019-01-10T18:30:28.414Z,4.00
2019-01-10T18:32:57.965Z,3.77
2019-01-10T18:35:27.681Z,2.83
2019-01-10T18:37:57.175Z,3.07
2019-01-10T18:40:27.774Z,3.87
2019-01-10T18:42:57.206Z,3.00
2019-01-10T18:45:29.441Z,4.27
2019-01-10T18:47:58.908Z,4.10
2019-01-10T18:50:28.366Z,3.77
2019-01-10T18:52:58.933Z,4.37
2019-01-10T18:55:29.024Z,7.53
2019-01-10T18:57:58.684Z,9.03
2019-01-10T19:00:29.546Z,6.70
2019-01-10T19:02:59.970Z,7.63
2019-01-10T19:05:30.288Z,6.30
2019-01-10T19:07:59.863Z,8.40
2019-01-10T19:10:30.198Z,7.40
2019-01-10T19:12:59.732Z,6.73
2019-01-10T19:15:29.162Z,7.23
2019-01-10T19:18:03.401Z,6.60
2019-01-10T19:20:29.972Z,7.07
2019-01-10T19:23:01.781Z,6.53
2019-01-10T19:25:31.550Z,7.00
2019-01-10T19:28:01.094Z,8.80
2019-01-10T19:30:35.735Z,7.53
2019-01-10T19:33:06.246Z,13.27
2019-01-10T19:35:35.722Z,8.87
2019-01-10T19:38:05.335Z,8.53
2019-01-10T19:40:35.026Z,11.07
2019-01-10T19:43:04.487Z,11.20
2019-01-10T19:45:33.941Z,9.03
2019-01-10T19:48:09.515Z,11.53
2019-01-10T19:50:34.966Z,18.20
2019-01-10T19:53:04.574Z,16.47
2019-01-10T19:55:35.514Z,20.23
2019-01-10T19:58:05.082Z,27.03
2019-01-10T20:00:39.948Z,71.90
2019-01-10T20:03:09.590Z,26.43
2019-01-10T20:05:39.279Z,20.23
2019-01-10T20:08:08.752Z,22.13
2019-01-10T20:10:38.495Z,29.87
2019-01-10T20:13:07.977Z,24.27
2019-01-10T20:15:37.456Z,47.63
2019-01-10T20:18:07.006Z,30.97
2019-01-10T20:20:38.781Z,37.90
2019-01-10T20:23:10.380Z,36.40
2019-01-10T20:25:39.882Z,24.13
2019-01-10T20:28:09.314Z,29.63
2019-01-10T20:30:38.770Z,30.87
2019-01-10T20:33:08.197Z,28.30
2019-01-10T20:35:38.683Z,25.70
2019-01-10T20:38:08.114Z,20.43
2019-01-10T20:40:37.547Z,20.50
2019-01-10T20:43:06.997Z,19.30
2019-01-10T20:45:36.746Z,23.77
2019-01-10T20:48:06.171Z,17.50
2019-01-10T20:50:35.806Z,26.53
2019-01-10T20:53:05.230Z,14.63
2019-01-10T20:55:35.727Z,22.23
2019-01-10T20:58:05.546Z,19.57
2019-01-10T21:00:35.432Z,19.27
2019-01-10T21:03:05.091Z,19.80
2019-01-10T21:05:34.531Z,21.33
2019-01-10T21:08:03.962Z,16.90
2019-01-10T21:10:33.424Z,19.37
2019-01-10T21:13:03.067Z,19.10
2019-01-10T21:15:32.843Z,108.73
2019-01-10T21:18:02.287Z,24.50
2019-01-10T21:20:31.714Z,16.97
2019-01-10T21:23:01.177Z,22.47
2019-01-10T21:25:30.621Z,17.70
2019-01-10T21:28:00.710Z,20.93
2019-01-10T21:30:31.244Z,26.10
2019-01-10T21:33:00.667Z,16.83
2019-01-10T21:35:30.190Z,18.80
2019-01-10T21:37:59.636Z,38.27
2019-01-10T21:40:30.826Z,23.87
2019-01-10T21:43:00.327Z,25.50
2019-01-10T21:45:29.766Z,18.77
2019-01-10T21:47:59.221Z,20.03
2019-01-10T21:50:28.719Z,37.00
2019-01-10T21:52:58.269Z,20.37
2019-01-10T21:55:27.741Z,21.90
2019-01-10T21:57:57.154Z,12.30
2019-01-10T22:00:31.746Z,8.83
2019-01-10T22:03:02.524Z,8.17
2019-01-10T22:05:32.172Z,8.53
2019-01-10T22:08:04.477Z,7.30
2019-01-10T22:10:34.974Z,6.73
2019-01-10T22:13:04.513Z,6.87
2019-01-10T22:15:33.931Z,8.30
2019-01-10T22:18:03.357Z,9.13
2019-01-10T22:20:32.782Z,8.10
2019-01-10T22:23:02.231Z,9.23
2019-01-10T22:25:31.658Z,10.13
2019-01-10T22:28:01.190Z,12.20
2019-01-10T22:30:30.627Z,7.70
2019-01-10T22:33:00.052Z,7.63
2019-01-10T22:35:29.517Z,7.80
2019-01-10T22:37:59.081Z,7.03
2019-01-10T22:40:28.514Z,6.33
2019-01-10T22:42:57.966Z,7.50
2019-01-10T22:45:27.399Z,8.07
2019-01-10T22:47:56.834Z,9.23
2019-01-10T22:50:26.501Z,8.93
2019-01-10T22:52:55.962Z,10.73
2019-01-10T22:55:25.398Z,10.03
2019-01-10T22:57:54.834Z,9.50
2019-01-10T23:00:44.093Z,10.40
2019-01-10T23:03:13.582Z,10.40
2019-01-10T23:05:43.785Z,11.00
2019-01-10T23:08:13.718Z,13.27
2019-01-10T23:10:43.159Z,13.03
2019-01-10T23:13:13.700Z,12.20
2019-01-10T23:15:43.590Z,12.80
2019-01-10T23:18:13.354Z,13.03
2019-01-10T23:20:43.048Z,10.17
2019-01-10T23:23:12.519Z,9.20
2019-01-10T23:25:42.104Z,6.93
2019-01-10T23:28:11.942Z,9.63
2019-01-10T23:30:55.851Z,8.43
2019-01-10T23:33:25.542Z,5.80
2019-01-10T23:35:59.527Z,6.47
2019-01-10T23:38:35.433Z,6.13
2019-01-10T23:41:04.862Z,5.63
2019-01-10T23:43:34.275Z,6.33
2019-01-10T23:46:04.535Z,5.83
2019-01-10T23:48:34.070Z,5.30
2019-01-10T23:51:03.530Z,5.60
2019-01-10T23:53:32.946Z,6.30
2019-01-10T23:56:02.542Z,6.70
2019-01-10T23:58:31.978Z,5.83
